createdAt,value
2023-05-19T00:01:54.794Z,101300.13
2023-05-19T00:04:24.724Z,101297.52
2023-05-19T00:07:54.323Z,101292.24
2023-05-19T00:10:23.347Z,101291.31
2023-05-19T00:13:00.898Z,101294.41
2023-05-19T00:15:33.083Z,101292.83
2023-05-19T00:18:03.032Z,101291.25
2023-05-19T00:20:32.918Z,101289.52
2023-05-19T00:23:05.349Z,101290.27
2023-05-19T00:25:48.646Z,101292.71
2023-05-19T00:28:41.753Z,101290.61
2023-05-19T00:31:13.292Z,101288.16
2023-05-19T00:34:42.563Z,101291.64
2023-05-19T00:37:11.718Z,101295.31
2023-05-19T00:39:51.353Z,101290.77
2023-05-19T00:42:26.797Z,101289.88
2023-05-19T00:44:59.708Z,101293.89
2023-05-19T00:47:50.648Z,101294.77
2023-05-19T00:50:19.830Z,101296.89
2023-05-19T00:52:52.166Z,101293.20
2023-05-19T00:55:27.328Z,101292.87
2023-05-19T00:57:58.368Z,101293.73
2023-05-19T01:00:31.869Z,101289.53
2023-05-19T01:03:01.376Z,101294.44
2023-05-19T01:05:30.573Z,101297.77
2023-05-19T01:08:05.402Z,101295.13
2023-05-19T01:10:57.565Z,101293.89
2023-05-19T01:13:33.243Z,101291.60
2023-05-19T01:16:10.884Z,101293.67
2023-05-19T01:18:52.010Z,101296.27
2023-05-19T01:22:18.167Z,101298.36
2023-05-19T01:25:04.916Z,101295.19
2023-05-19T01:27:53.594Z,101292.54
2023-05-19T01:31:02.806Z,101292.36
2023-05-19T01:33:38.837Z,101293.05
2023-05-19T01:36:19.281Z,101293.06
2023-05-19T01:38:56.215Z,101293.06
2023-05-19T01:41:29.641Z,101290.99
2023-05-19T01:44:02.277Z,101289.81
2023-05-19T01:46:31.400Z,101291.98
2023-05-19T01:49:20.674Z,101290.44
2023-05-19T01:51:58.708Z,101293.80
2023-05-19T01:54:41.140Z,101293.84
2023-05-19T01:57:52.498Z,101293.51
2023-05-19T02:01:05.234Z,101290.57
2023-05-19T02:04:13.155Z,101288.14
2023-05-19T02:06:54.534Z,101285.34
2023-05-19T02:09:44.219Z,101296.73
2023-05-19T02:12:47.688Z,101296.37
2023-05-19T02:15:32.134Z,101299.34
2023-05-19T02:18:05.556Z,101302.81
2023-05-19T02:20:34.878Z,101303.67
2023-05-19T02:23:04.261Z,101309.43
2023-05-19T02:25:33.396Z,101316.77
2023-05-19T02:28:12.668Z,101325.52
2023-05-19T02:30:44.154Z,101324.60
2023-05-19T02:33:13.411Z,101327.73
2023-05-19T02:35:42.880Z,101334.89
2023-05-19T02:38:11.659Z,101338.70
2023-05-19T02:40:40.869Z,101344.98
2023-05-19T02:43:10.049Z,101349.14
2023-05-19T02:45:40.490Z,101355.60
2023-05-19T02:48:09.474Z,101356.47
2023-05-19T02:50:38.764Z,101368.72
2023-05-19T02:53:09.008Z,101370.12
2023-05-19T02:55:37.665Z,101369.27
2023-05-19T02:58:06.924Z,101368.40
2023-05-19T03:00:46.324Z,101367.71
2023-05-19T03:03:15.939Z,101365.30
2023-05-19T03:05:45.484Z,101367.62
2023-05-19T03:08:19.452Z,101363.45
2023-05-19T03:10:51.014Z,101362.95
2023-05-19T03:13:19.708Z,101368.61
2023-05-19T03:15:52.130Z,101372.86
2023-05-19T03:18:21.858Z,101375.50
2023-05-19T03:20:50.988Z,101377.62
2023-05-19T03:23:24.816Z,101385.19
2023-05-19T03:25:55.570Z,101393.63
2023-05-19T03:28:24.770Z,101393.35
2023-05-19T03:30:56.430Z,101394.43
2023-05-19T03:33:26.291Z,101405.35
2023-05-19T03:35:55.884Z,101413.11
2023-05-19T03:38:27.806Z,101416.44
2023-05-19T03:41:50.434Z,101417.55
2023-05-19T03:44:50.230Z,101420.23
2023-05-19T03:47:35.796Z,101420.44
2023-05-19T03:50:25.644Z,101418.57
2023-05-19T03:52:58.265Z,101419.14
2023-05-19T03:55:27.931Z,101421.63
2023-05-19T03:57:57.613Z,101423.55
2023-05-19T04:00:27.640Z,101428.13
2023-05-19T04:02:56.793Z,101429.20
2023-05-19T04:05:32.371Z,101433.59
2023-05-19T04:08:01.483Z,101433.45
2023-05-19T04:10:33.766Z,101433.64
2023-05-19T04:13:03.095Z,101434.00
2023-05-19T04:15:32.964Z,101439.62
2023-05-19T04:18:22.884Z,101442.08
2023-05-19T04:21:02.801Z,101444.55
2023-05-19T04:24:03.338Z,101446.66
2023-05-19T04:26:35.479Z,101448.41
2023-05-19T04:29:05.630Z,101448.79
2023-05-19T04:31:37.530Z,101452.79
2023-05-19T04:34:11.255Z,101456.46
2023-05-19T04:36:40.643Z,101461.71
2023-05-19T04:39:12.654Z,101464.35
2023-05-19T04:41:43.053Z,101466.63
2023-05-19T04:44:14.559Z,101472.41
2023-05-19T04:46:46.511Z,101478.17
2023-05-19T04:49:15.614Z,101477.84
2023-05-19T04:51:47.184Z,101485.53
2023-05-19T04:54:39.023Z,101485.00
2023-05-19T04:57:08.204Z,101486.23
2023-05-19T04:59:40.271Z,101490.27
2023-05-19T05:02:09.308Z,101493.92
2023-05-19T05:04:38.493Z,101498.64
2023-05-19T05:07:07.531Z,101501.09
2023-05-19T05:09:36.939Z,101503.36
2023-05-19T05:12:08.844Z,101501.77
2023-05-19T05:14:41.321Z,101502.13
2023-05-19T05:17:14.789Z,101504.05
2023-05-19T05:19:44.317Z,101499.84
2023-05-19T05:22:13.767Z,101499.15
2023-05-19T05:24:43.984Z,101502.46
2023-05-19T05:27:14.492Z,101497.73
2023-05-19T05:29:44.068Z,101501.74
2023-05-19T05:32:44.041Z,101505.77
2023-05-19T05:35:16.190Z,101510.46
2023-05-19T05:38:18.148Z,101511.86
2023-05-19T05:41:17.127Z,101517.61
2023-05-19T05:44:09.653Z,101523.19
2023-05-19T05:46:58.782Z,101523.19
2023-05-19T05:49:28.079Z,101525.79
2023-05-19T05:52:17.363Z,101527.69
2023-05-19T05:54:47.344Z,101527.66
2023-05-19T05:57:20.042Z,101529.21
2023-05-19T05:59:50.079Z,101531.81
2023-05-19T06:02:19.617Z,101536.84
2023-05-19T06:04:51.223Z,101539.45
2023-05-19T06:07:20.300Z,101545.70
2023-05-19T06:09:49.376Z,101550.22
2023-05-19T06:12:19.144Z,101553.69
2023-05-19T06:14:48.214Z,101557.51
2023-05-19T06:17:17.488Z,101564.81
2023-05-19T06:19:46.475Z,101566.36
2023-05-19T06:22:15.640Z,101573.13
2023-05-19T06:24:44.634Z,101578.52
2023-05-19T06:27:15.126Z,101582.48
2023-05-19T06:29:45.387Z,101586.98
2023-05-19T06:32:17.911Z,101590.11
2023-05-19T06:34:55.062Z,101595.99
2023-05-19T06:37:28.288Z,101594.57
2023-05-19T06:39:57.260Z,101600.11
2023-05-19T06:42:26.871Z,101601.11
2023-05-19T06:44:57.068Z,101603.17
2023-05-19T06:47:30.817Z,101606.98
2023-05-19T06:50:03.072Z,101606.42
2023-05-19T06:52:32.398Z,101608.85
2023-05-19T06:55:11.109Z,101615.48
2023-05-19T06:57:42.882Z,101618.41
2023-05-19T07:00:30.609Z,101622.05
2023-05-19T07:03:02.815Z,101627.21
2023-05-19T07:05:32.474Z,101630.16
2023-05-19T07:08:12.212Z,101633.27
2023-05-19T07:10:46.840Z,101635.14
2023-05-19T07:13:29.662Z,101637.73
2023-05-19T07:15:58.788Z,101641.54
2023-05-19T07:18:32.873Z,101647.96
2023-05-19T07:21:02.156Z,101647.05
2023-05-19T07:23:31.136Z,101645.63
2023-05-19T07:26:00.338Z,101645.95
2023-05-19T07:28:29.552Z,101650.79
2023-05-19T07:30:59.003Z,101649.57
2023-05-19T07:33:28.825Z,101654.59
2023-05-19T07:36:39.127Z,101659.27
2023-05-19T07:39:08.601Z,101664.13
2023-05-19T07:41:41.438Z,101668.12
2023-05-19T07:44:11.534Z,101672.98
2023-05-19T07:46:40.832Z,101674.69
2023-05-19T07:49:09.988Z,101673.95
2023-05-19T07:51:43.278Z,101675.17
2023-05-19T07:54:32.322Z,101675.17
2023-05-19T07:57:01.222Z,101672.18
2023-05-19T07:59:30.506Z,101671.81
2023-05-19T08:02:11.033Z,101673.00
2023-05-19T08:04:40.396Z,101675.06
2023-05-19T08:07:09.697Z,101678.38
2023-05-19T08:09:38.934Z,101676.11
2023-05-19T08:12:08.000Z,101680.46
2023-05-19T08:14:47.955Z,101677.66
2023-05-19T08:17:20.536Z,101681.80
2023-05-19T08:19:49.552Z,101680.05
2023-05-19T08:22:18.693Z,101683.02
2023-05-19T08:24:50.713Z,101684.89
2023-05-19T08:27:19.593Z,101682.95
2023-05-19T08:29:56.551Z,101684.48
2023-05-19T08:32:25.953Z,101685.48
2023-05-19T08:34:56.478Z,101687.88
2023-05-19T08:37:25.693Z,101691.48
2023-05-19T08:39:54.899Z,101695.30
2023-05-19T08:42:24.656Z,101695.28
2023-05-19T08:45:03.415Z,101703.08
2023-05-19T08:47:33.320Z,101701.30
2023-05-19T08:50:11.117Z,101703.70
2023-05-19T08:53:32.592Z,101713.25
2023-05-19T08:56:10.973Z,101716.19
2023-05-19T08:59:01.585Z,101713.86
2023-05-19T09:01:31.516Z,101712.76
2023-05-19T09:04:00.742Z,101715.86
2023-05-19T09:06:33.456Z,101711.66
2023-05-19T09:09:02.566Z,101716.18
2023-05-19T09:11:36.773Z,101716.32
2023-05-19T09:14:06.819Z,101720.08
2023-05-19T09:16:40.347Z,101722.30
2023-05-19T09:19:18.589Z,101724.86
2023-05-19T09:21:50.508Z,101723.61
2023-05-19T09:24:39.616Z,101724.11
2023-05-19T09:27:09.142Z,101723.59
2023-05-19T09:29:52.014Z,101724.61
2023-05-19T09:33:10.865Z,101726.35
2023-05-19T09:36:24.495Z,101725.48
2023-05-19T09:38:59.433Z,101729.80
2023-05-19T09:41:29.723Z,101728.40
2023-05-19T09:43:59.065Z,101731.63
2023-05-19T09:46:31.611Z,101732.09
2023-05-19T09:49:10.402Z,101732.76
2023-05-19T09:51:39.733Z,101729.05
2023-05-19T09:54:11.226Z,101733.53
2023-05-19T09:56:40.609Z,101731.55
2023-05-19T09:59:09.546Z,101735.33
2023-05-19T10:01:48.523Z,101733.16
2023-05-19T10:04:18.317Z,101735.39
2023-05-19T10:06:47.774Z,101735.02
2023-05-19T10:09:23.627Z,101736.38
2023-05-19T10:12:01.764Z,101736.50
2023-05-19T10:14:31.723Z,101732.45
2023-05-19T10:17:07.574Z,101736.23
2023-05-19T10:19:38.535Z,101740.03
2023-05-19T10:22:11.185Z,101748.73
2023-05-19T10:25:00.815Z,101746.64
2023-05-19T10:27:31.264Z,101748.05
2023-05-19T10:30:09.474Z,101745.96
2023-05-19T10:32:50.424Z,101744.55
2023-05-19T10:35:36.069Z,101747.16
2023-05-19T10:38:52.527Z,101745.80
2023-05-19T10:41:56.244Z,101747.20
2023-05-19T10:44:50.027Z,101745.44
2023-05-19T10:47:28.592Z,101748.56
2023-05-19T10:49:57.705Z,101747.64
2023-05-19T10:52:32.087Z,101748.98
2023-05-19T10:55:03.424Z,101751.73
2023-05-19T10:57:35.770Z,101759.20
2023-05-19T11:00:27.252Z,101760.77
2023-05-19T11:03:21.574Z,101757.61
2023-05-19T11:05:53.453Z,101761.23
2023-05-19T11:08:34.827Z,101761.89
2023-05-19T11:11:23.365Z,101762.61
2023-05-19T11:14:01.433Z,101762.12
2023-05-19T11:16:31.489Z,101760.69
2023-05-19T11:19:30.334Z,101757.16
2023-05-19T11:22:11.002Z,101761.27
2023-05-19T11:24:53.390Z,101757.55
2023-05-19T11:27:52.617Z,101761.69
2023-05-19T11:31:22.020Z,101763.21
2023-05-19T11:34:42.462Z,101757.99
2023-05-19T11:37:12.516Z,101757.30
2023-05-19T11:39:42.131Z,101757.14
2023-05-19T11:42:12.259Z,101753.66
2023-05-19T11:44:42.524Z,101752.24
2023-05-19T11:47:12.343Z,101752.56
2023-05-19T11:49:44.636Z,101748.05
2023-05-19T11:52:46.156Z,101744.73
2023-05-19T11:55:27.379Z,101744.38
2023-05-19T11:58:05.006Z,101744.34
2023-05-19T12:00:51.967Z,101743.66
2023-05-19T12:03:27.563Z,101746.77
2023-05-19T12:06:18.765Z,101745.54
2023-05-19T12:08:53.376Z,101751.42
2023-05-19T12:11:22.743Z,101753.67
2023-05-19T12:14:04.180Z,101755.77
2023-05-19T12:16:38.029Z,101756.44
2023-05-19T12:19:30.718Z,101756.45
2023-05-19T12:22:00.245Z,101760.23
2023-05-19T12:24:32.774Z,101760.02
2023-05-19T12:27:24.806Z,101760.88
2023-05-19T12:30:14.294Z,101761.00
2023-05-19T12:33:03.806Z,101761.14
2023-05-19T12:35:38.998Z,101767.52
2023-05-19T12:38:11.093Z,101765.03
2023-05-19T12:40:40.675Z,101771.98
2023-05-19T12:43:20.142Z,101773.70
2023-05-19T12:45:50.053Z,101779.94
2023-05-19T12:48:23.754Z,101779.20
2023-05-19T12:50:56.642Z,101781.58
2023-05-19T12:53:32.296Z,101785.71
2023-05-19T12:56:01.180Z,101784.83
2023-05-19T12:58:30.393Z,101782.90
2023-05-19T13:01:01.573Z,101783.08
2023-05-19T13:03:51.385Z,101782.71
2023-05-19T13:06:23.809Z,101788.11
2023-05-19T13:08:53.014Z,101787.92
2023-05-19T13:11:22.196Z,101787.93
2023-05-19T13:13:56.965Z,101792.13
2023-05-19T13:16:26.166Z,101795.82
2023-05-19T13:19:17.691Z,101797.95
2023-05-19T13:22:07.201Z,101803.94
2023-05-19T13:24:54.329Z,101807.85
2023-05-19T13:28:08.274Z,101812.29
2023-05-19T13:31:00.951Z,101815.20
2023-05-19T13:34:21.017Z,101812.17
2023-05-19T13:36:50.611Z,101814.22
2023-05-19T13:39:22.383Z,101818.46
2023-05-19T13:41:54.448Z,101818.39
2023-05-19T13:44:26.805Z,101825.08
2023-05-19T13:47:16.337Z,101822.02
2023-05-19T13:49:45.843Z,101826.10
2023-05-19T13:52:18.083Z,101830.34
2023-05-19T13:54:47.156Z,101829.00
2023-05-19T13:57:19.554Z,101829.39
2023-05-19T14:00:00.974Z,101833.80
2023-05-19T14:02:34.792Z,101834.02
2023-05-19T14:05:17.197Z,101836.33
2023-05-19T14:07:46.489Z,101835.99
2023-05-19T14:10:19.991Z,101836.54
2023-05-19T14:13:12.425Z,101839.85
2023-05-19T14:16:18.470Z,101840.41
2023-05-19T14:18:50.824Z,101847.60
2023-05-19T14:21:20.936Z,101848.48
2023-05-19T14:23:51.261Z,101851.95
2023-05-19T14:26:20.885Z,101851.78
2023-05-19T14:28:52.844Z,101852.50
2023-05-19T14:31:22.822Z,101852.86
2023-05-19T14:33:52.528Z,101857.23
2023-05-19T14:36:28.425Z,101858.96
2023-05-19T14:38:57.798Z,101861.94
2023-05-19T14:42:05.981Z,101861.77
2023-05-19T14:44:35.173Z,101866.16
2023-05-19T14:47:05.196Z,101870.70
2023-05-19T14:49:34.430Z,101869.84
2023-05-19T14:52:03.531Z,101875.40
2023-05-19T14:55:02.485Z,101877.46
2023-05-19T14:57:35.346Z,101876.95
2023-05-19T15:00:04.281Z,101878.87
2023-05-19T15:02:55.171Z,101879.38
2023-05-19T15:05:26.003Z,101880.80
2023-05-19T15:08:11.901Z,101882.02
2023-05-19T15:10:44.725Z,101881.52
2023-05-19T15:13:17.172Z,101883.45
2023-05-19T15:16:22.241Z,101880.65
2023-05-19T15:18:48.748Z,101880.14
2023-05-19T15:22:07.525Z,101879.63
2023-05-19T15:25:36.911Z,101882.59
2023-05-19T15:28:29.559Z,101881.90
2023-05-19T15:31:02.881Z,101881.63
2023-05-19T15:33:34.574Z,101882.69
2023-05-19T15:36:04.007Z,101885.16
2023-05-19T15:39:07.463Z,101885.19
2023-05-19T15:41:56.916Z,101884.54
2023-05-19T15:44:28.296Z,101885.05
2023-05-19T15:46:58.374Z,101885.23
2023-05-19T15:49:33.839Z,101885.08
2023-05-19T15:52:35.612Z,101885.61
2023-05-19T15:55:13.173Z,101888.61
2023-05-19T15:57:42.154Z,101888.98
2023-05-19T16:00:28.265Z,101892.31
2023-05-19T16:03:32.265Z,101892.16
2023-05-19T16:06:20.603Z,101892.35
2023-05-19T16:08:49.767Z,101890.83
2023-05-19T16:11:32.127Z,101887.69
2023-05-19T16:14:27.634Z,101888.41
2023-05-19T16:17:57.596Z,101886.88
2023-05-19T16:20:30.877Z,101890.20
2023-05-19T16:23:00.139Z,101894.58
2023-05-19T16:25:29.359Z,101894.05
2023-05-19T16:28:02.523Z,101896.86
2023-05-19T16:30:32.331Z,101895.45
2023-05-19T16:33:02.119Z,101895.29
2023-05-19T16:35:34.633Z,101899.30
2023-05-19T16:38:03.974Z,101896.52
2023-05-19T16:40:34.568Z,101898.27
2023-05-19T16:43:03.806Z,101897.57
2023-05-19T16:45:34.456Z,101897.41
2023-05-19T16:48:07.008Z,101900.05
2023-05-19T16:50:37.479Z,101897.11
2023-05-19T16:53:06.978Z,101895.73
2023-05-19T16:55:39.152Z,101894.18
2023-05-19T16:58:08.296Z,101897.35
2023-05-19T17:00:47.385Z,101892.31
2023-05-19T17:03:16.543Z,101893.02
2023-05-19T17:05:45.881Z,101893.23
2023-05-19T17:08:14.984Z,101895.52
2023-05-19T17:11:44.342Z,101891.89
2023-05-19T17:15:13.984Z,101893.49
2023-05-19T17:18:27.350Z,101893.89
2023-05-19T17:21:55.686Z,101897.41
2023-05-19T17:25:24.980Z,101896.89
2023-05-19T17:28:50.421Z,101898.50
2023-05-19T17:32:19.809Z,101898.57
2023-05-19T17:35:50.457Z,101901.92
2023-05-19T17:39:09.488Z,101904.89
2023-05-19T17:42:38.891Z,101900.73
2023-05-19T17:46:08.448Z,101908.21
2023-05-19T17:49:37.828Z,101908.91
2023-05-19T17:52:47.906Z,101909.81
2023-05-19T17:56:17.331Z,101913.17
2023-05-19T17:59:13.739Z,101907.70
2023-05-19T18:02:34.706Z,101907.98
2023-05-19T18:05:57.332Z,101907.92
2023-05-19T18:09:17.265Z,101912.41
2023-05-19T18:11:57.098Z,101912.69
2023-05-19T18:14:28.856Z,101905.29
2023-05-19T18:17:39.437Z,101905.55
2023-05-19T18:20:39.507Z,101904.59
2023-05-19T18:23:28.898Z,101904.14
2023-05-19T18:26:10.261Z,101899.08
2023-05-19T18:28:48.472Z,101899.45
2023-05-19T18:31:43.124Z,101893.52
2023-05-19T18:34:12.339Z,101893.77
2023-05-19T18:36:43.813Z,101893.86
2023-05-19T18:39:13.010Z,101893.58
2023-05-19T18:42:42.193Z,101894.48
2023-05-19T18:45:54.565Z,101890.55
2023-05-19T18:48:37.231Z,101886.61
2023-05-19T18:51:26.183Z,101886.86
2023-05-19T18:54:13.983Z,101890.42
2023-05-19T18:57:03.406Z,101886.99
2023-05-19T18:59:56.843Z,101882.00
2023-05-19T19:03:15.957Z,101880.33
2023-05-19T19:06:35.596Z,101880.73
2023-05-19T19:09:50.258Z,101876.64
2023-05-19T19:13:19.452Z,101876.71
2023-05-19T19:15:52.301Z,101865.77
2023-05-19T19:18:21.330Z,101867.19
2023-05-19T19:20:50.698Z,101867.73
2023-05-19T19:23:22.982Z,101863.23
2023-05-19T19:25:57.652Z,101863.62
2023-05-19T19:28:29.400Z,101862.96
2023-05-19T19:31:01.422Z,101859.00
2023-05-19T19:34:12.563Z,101856.92
2023-05-19T19:36:42.469Z,101852.91
2023-05-19T19:39:17.954Z,101849.09
2023-05-19T19:41:47.159Z,101842.63
2023-05-19T19:44:39.315Z,101843.83
2023-05-19T19:47:13.017Z,101839.99
2023-05-19T19:50:32.556Z,101839.49
2023-05-19T19:53:17.582Z,101832.88
2023-05-19T19:56:46.090Z,101828.55
2023-05-19T20:00:15.637Z,101827.52
2023-05-19T20:03:27.998Z,101827.19
2023-05-19T20:06:41.161Z,101822.48
2023-05-19T20:10:00.554Z,101821.78
2023-05-19T20:13:30.742Z,101814.09
2023-05-19T20:17:01.669Z,101810.77
2023-05-19T20:20:15.948Z,101812.36
2023-05-19T20:22:54.509Z,101810.32
2023-05-19T20:26:23.995Z,101808.95
2023-05-19T20:29:53.496Z,101809.30
2023-05-19T20:32:40.415Z,101806.02
2023-05-19T20:35:34.494Z,101805.85
2023-05-19T20:38:37.446Z,101801.67
2023-05-19T20:41:43.678Z,101796.97
2023-05-19T20:44:42.223Z,101795.42
2023-05-19T20:47:39.872Z,101790.70
2023-05-19T20:51:09.328Z,101789.33
2023-05-19T20:54:38.620Z,101790.06
2023-05-19T20:57:51.392Z,101787.48
2023-05-19T21:01:20.124Z,101785.05
2023-05-19T21:04:49.737Z,101783.64
2023-05-19T21:07:49.208Z,101785.75
2023-05-19T21:10:50.317Z,101786.48
2023-05-19T21:13:44.601Z,101780.38
2023-05-19T21:17:03.934Z,101772.71
2023-05-19T21:20:13.685Z,101772.39
2023-05-19T21:23:22.990Z,101775.57
2023-05-19T21:25:52.435Z,101781.20
2023-05-19T21:28:22.373Z,101779.64
2023-05-19T21:30:51.763Z,101773.71
2023-05-19T21:33:41.345Z,101769.88
2023-05-19T21:36:13.942Z,101762.71
2023-05-19T21:38:44.206Z,101758.88
2023-05-19T21:41:13.436Z,101756.60
2023-05-19T21:43:45.298Z,101754.70
2023-05-19T21:46:49.209Z,101753.66
2023-05-19T21:49:18.877Z,101750.70
2023-05-19T21:52:07.552Z,101751.93
2023-05-19T21:55:26.984Z,101751.59
2023-05-19T21:58:20.178Z,101750.23
2023-05-19T22:01:28.830Z,101746.91
2023-05-19T22:04:28.443Z,101741.49
2023-05-19T22:06:59.388Z,101742.38
2023-05-19T22:09:29.059Z,101738.86
2023-05-19T22:12:09.880Z,101731.00
2023-05-19T22:15:02.133Z,101724.36
2023-05-19T22:17:34.432Z,101724.18
2023-05-19T22:20:03.791Z,101724.36
2023-05-19T22:22:37.933Z,101719.13
2023-05-19T22:25:08.880Z,101715.95
2023-05-19T22:28:09.771Z,101712.64
2023-05-19T22:30:41.281Z,101714.39
2023-05-19T22:33:30.696Z,101710.54
2023-05-19T22:36:06.086Z,101707.75
2023-05-19T22:39:25.566Z,101707.92
2023-05-19T22:42:28.030Z,101702.13
2023-05-19T22:45:20.877Z,101692.86
2023-05-19T22:47:53.055Z,101689.69
2023-05-19T22:50:45.913Z,101686.18
2023-05-19T22:54:06.585Z,101682.50
2023-05-19T22:57:16.331Z,101676.88
2023-05-19T22:59:55.544Z,101672.48
2023-05-19T23:02:41.441Z,101667.39
2023-05-19T23:05:13.777Z,101662.13
2023-05-19T23:08:05.846Z,101655.80
2023-05-19T23:10:37.964Z,101653.54
2023-05-19T23:13:39.607Z,101656.67
2023-05-19T23:16:08.900Z,101650.37
2023-05-19T23:18:58.837Z,101644.92
2023-05-19T23:21:28.250Z,101636.67
2023-05-19T23:24:07.946Z,101627.55
2023-05-19T23:26:47.864Z,101635.08
2023-05-19T23:29:29.939Z,101632.23
2023-05-19T23:31:59.099Z,101632.72
2023-05-19T23:34:28.240Z,101630.25
2023-05-19T23:36:57.853Z,101628.99
2023-05-19T23:39:39.312Z,101622.85
2023-05-19T23:42:14.368Z,101617.04
2023-05-19T23:44:43.482Z,101612.83
2023-05-19T23:47:52.905Z,101609.30
2023-05-19T23:50:52.412Z,101608.73
2023-05-19T23:53:24.869Z,101607.27
2023-05-19T23:55:54.969Z,101604.41
2023-05-19T23:58:49.985Z,101604.39
